Data for 03/08/2015

Time Sea-Level Adjusted Pressure Absolute Pressure Temperature Relative Humidity Dew Point   
(mb) (inHg) (mb) (inHg) (C) (F) (%) (C) (F)
00:05 1021 30.15 850 25.1 1.4 34.5 65 -4.5 24
00:10 1021 30.15 850 25.1 1.4 34.6 64 -4.7 23.6
00:15 1021 30.15 850 25.1 1.5 34.8 63 -4.8 23.4
00:20 1021 30.15 850 25.1 1.3 34.4 62 -5.1 22.9
00:25 1021 30.15 850 25.1 1.1 34 63 -5.1 22.8
00:30 1021 30.15 850 25.1 1.1 33.9 63 -5.2 22.7
00:35 1021 30.15 850 25.1 1 33.8 65 -4.9 23.2
00:40 1021 30.15 850 25.1 0.9 33.6 66 -4.8 23.4
00:45 1021 30.15 850 25.1 0.8 33.5 66 -4.8 23.4
00:50 1021 30.15 850 25.1 0.8 33.5 66 -4.8 23.4
00:55 1021 30.15 850 25.1 0.9 33.7 66 -4.8 23.4
01:00 1021 30.15 850 25.1 1 33.8 65 -4.8 23.3
01:05 1021 30.15 850 25.1 1 33.8 66 -4.7 23.5
01:10 1021 30.15 850 25.1 0.9 33.6 66 -4.8 23.3
01:15 1021 30.15 850 25.1 0.7 33.3 66 -4.9 23.1
01:20 1021 30.15 850 25.1 0.7 33.3 65 -5.1 22.8
01:25 1021 30.15 850 25.1 0.8 33.4 65 -5 22.9
01:30 1021 30.15 850 25.1 0.7 33.2 65 -5.2 22.6
01:35 1021 30.15 850 25.1 0.7 33.2 65 -5.2 22.6
01:40 1021 30.15 850 25.1 0.7 33.3 65 -5.2 22.7
01:45 1021 30.15 851 25.13 0.8 33.5 64 -5.2 22.7
01:50 1021 30.15 851 25.13 0.9 33.5 63 -5.3 22.4
01:55 1021 30.15 851 25.13 1 33.8 63 -5.4 22.3
03:00 1021 30.15 851 25.13 1 33.8 62 -5.5 22.1
03:05 1021 30.15 851 25.13 0.9 33.6 61 -5.8 21.6
03:10 1021 30.15 851 25.13 0.9 33.5 60 -6 21.2
03:15 1021 30.15 851 25.13 0.9 33.6 59 -6.3 20.7
03:20 1021 30.15 851 25.13 0.8 33.5 60 -6.1 21
03:25 1021 30.15 851 25.13 0.7 33.3 59 -6.3 20.6
03:30 1021 30.15 851 25.13 0.6 33 58 -6.7 19.9
03:35 1021 30.15 851 25.13 0.5 32.9 57 -7.1 19.3
03:40 1021 30.15 851 25.13 0.6 33.1 56 -7.2 19.1
03:45 1021 30.15 851 25.13 0.9 33.6 54 -7.3 18.9
03:50 1021 30.15 851 25.13 1.3 34.3 53 -7.3 18.9
03:55 1021 30.15 851 25.13 1.2 34.2 52 -7.7 18.2
04:00 1021 30.15 850 25.1 1.1 34 52 -7.7 18.1
04:05 1021 30.15 850 25.1 0.6 33.1 52 -8.2 17.3
04:10 1021 30.15 850 25.1 0.9 33.6 50 -8.4 17
04:15 1021 30.15 850 25.1 1.3 34.3 49 -8.3 17.1
04:20 1021 30.15 850 25.1 0.9 33.6 53 -7.7 18.1
04:25 1021 30.15 850 25.1 0.3 32.5 54 -8 17.5
04:30 1021 30.15 850 25.1 -0.1 31.9 56 -7.9 17.9
04:35 1021 30.15 850 25.1 -0.5 31.1 57 -8 17.6
04:40 1021 30.15 850 25.1 -0.5 31 57 -8.1 17.4
04:45 1021 30.15 850 25.1 -0.2 31.6 54 -8.3 17
04:50 1021 30.15 850 25.1 -0.2 31.6 55 -8.1 17.4
04:55 1021 30.15 850 25.1 -0.3 31.5 57 -7.9 17.8
05:00 1021 30.15 850 25.1 -0.3 31.5 59 -7.4 18.7
05:05 1021 30.15 850 25.1 -0.4 31.3 59 -7.4 18.6
05:10 1021 30.15 850 25.1 -0.4 31.3 59 -7.5 18.4
05:15 1021 30.15 850 25.1 -0.2 31.7 56 -8 17.6
05:20 1021 30.15 850 25.1 0.1 32.2 55 -7.9 17.8
05:25 1021 30.15 851 25.13 0.1 32.3 53 -8.3 17.1
05:30 1021 30.15 850 25.1 0.4 32.7 51 -8.6 16.6
05:35 1021 30.15 850 25.1 0.5 32.9 53 -8 17.6
05:40 1021 30.15 851 25.13 -0.1 31.9 56 -7.8 17.9
05:45 1021 30.15 851 25.13 -0.7 30.7 57 -8.1 17.4
05:50 1021 30.15 851 25.13 -0.5 31.1 56 -8.3 17.1
05:55 1021 30.15 851 25.13 -0.6 30.9 57 -8 17.5
06:00 1021 30.15 851 25.13 -1.1 30.1 58 -8.4 16.9
06:05 1021 30.15 851 25.13 -0.8 30.6 58 -8 17.5
06:10 1021 30.15 851 25.13 -1.3 29.7 60 -8.2 17.3
06:15 1021 30.15 850 25.1 -1.3 29.6 60 -8 17.5
06:20 1021 30.15 850 25.1 -1.5 29.3 60 -8.2 17.2
06:25 1021 30.15 850 25.1 -1.3 29.7 60 -8.1 17.4
06:30 1021 30.15 850 25.1 -1.1 30 59 -8.2 17.3
06:35 1021 30.15 850 25.1 -1 30.3 59 -8 17.5
06:40 1021 30.15 850 25.1 -1.1 29.9 60 -8 17.6
06:45 1021 30.15 850 25.1 -1.3 29.7 60 -8.1 17.4
06:50 1021 30.15 850 25.1 -1.2 29.9 59 -8.1 17.4
06:55 1021 30.15 850 25.1 -1 30.1 59 -8.1 17.5
07:00 1021 30.15 850 25.1 -0.9 30.4 58 -8.1 17.5
07:05 1021 30.15 850 25.1 -0.9 30.3 59 -8 17.6
07:10 1021 30.15 850 25.1 -0.7 30.8 57 -8.1 17.4
07:15 1021 30.15 850 25.1 -0.5 31.2 57 -8 17.5
07:20 1021 30.15 850 25.1 -0.5 31.1 58 -7.8 17.9
07:25 1021 30.15 850 25.1 -0.9 30.5 59 -7.9 17.8
07:30 1021 30.15 850 25.1 -0.9 30.3 59 -8 17.7
07:35 1021 30.15 850 25.1 -0.9 30.5 59 -7.9 17.8
07:40 1021 30.15 850 25.1 -0.9 30.4 60 -7.7 18.1
07:45 1021 30.15 850 25.1 -0.9 30.4 59 -8 17.7
07:50 1021 30.15 850 25.1 -0.7 30.7 58 -8 17.7
07:55 1021 30.15 850 25.1 -0.7 30.7 59 -7.8 17.9
08:00 1021 30.15 850 25.1 -0.8 30.5 59 -7.9 17.7
08:05 1021 30.15 850 25.1 -0.8 30.6 59 -7.8 17.9
08:10 1021 30.15 850 25.1 -0.6 30.9 57 -8.1 17.5
08:15 1021 30.15 850 25.1 -0 31.9 55 -8 17.6
08:20 1021 30.15 850 25.1 0.4 32.8 53 -8.1 17.4
08:25 1021 30.15 850 25.1 0.9 33.7 51 -8 17.5
08:30 1021 30.15 850 25.1 1.1 33.9 52 -7.8 17.9
08:35 1021 30.15 850 25.1 0.8 33.5 52 -7.9 17.9
08:40 1021 30.15 850 25.1 0.8 33.4 53 -7.7 18.1
08:45 1021 30.15 851 25.13 0.6 33 54 -7.7 18.2
08:50 1021 30.15 851 25.13 0.5 32.9 55 -7.6 18.3
08:55 1021 30.15 851 25.13 0.6 33.1 55 -7.3 18.8
09:00 1021 30.15 851 25.13 0.9 33.6 54 -7.3 18.8
09:05 1021 30.15 851 25.13 1.2 34.1 51 -7.8 18
09:10 1022 30.18 851 25.13 1.8 35.3 50 -7.6 18.3
09:15 1022 30.18 851 25.13 2.3 36.1 49 -7.5 18.6
09:20 1022 30.18 851 25.13 2.1 35.8 49 -7.5 18.5
09:25 1022 30.18 851 25.13 2.1 35.8 49 -7.5 18.5
09:30 1022 30.18 851 25.13 2.7 36.8 47 -7.4 18.7
09:35 1022 30.18 851 25.13 3.4 38.1 46 -7.2 19
09:40 1022 30.18 851 25.13 3.8 38.9 46 -6.8 19.8
09:45 1022 30.18 851 25.13 4.4 39.8 43 -7.1 19.1
09:50 1022 30.18 851 25.13 5.1 41.2 41 -7 19.4
09:55 1022 30.18 851 25.13 5.5 42 40 -6.9 19.6
10:00 1022 30.18 851 25.13 5.4 41.7 41 -6.9 19.6
10:05 1022 30.18 851 25.13 5.3 41.6 40 -7.3 18.9
10:10 1022 30.18 851 25.13 5.9 42.6 39 -7.1 19.1
10:15 1022 30.18 851 25.13 5.9 42.7 39 -6.8 19.7
10:20 1022 30.18 851 25.13 5.1 41.2 42 -6.7 20
10:25 1022 30.18 851 25.13 5.4 41.7 39 -7.5 18.5
10:30 1022 30.18 851 25.13 6.2 43.2 38 -7.1 19.2
10:35 1022 30.18 851 25.13 6.7 44.1 37 -7.1 19.3
10:40 1022 30.18 851 25.13 6.9 44.4 36 -7.1 19.2
10:45 1022 30.18 851 25.13 6.6 43.9 36 -7.3 18.8
10:50 1022 30.18 851 25.13 6.8 44.2 34 -8 17.6
10:55 1022 30.18 851 25.13 7.2 45 34 -7.8 18
11:00 1022 30.18 851 25.13 7.2 44.9 35 -7.2 19.1
11:05 1022 30.18 851 25.13 7.4 45.4 32 -8.1 17.4
11:10 1022 30.18 851 25.13 7.9 46.2 32 -8 17.6
11:15 1022 30.18 851 25.13 8 46.5 31 -8.1 17.4
11:20 1022 30.18 851 25.13 8.3 46.9 30 -8.5 16.7
11:25 1022 30.18 851 25.13 8.3 47 30 -8.3 17
11:30 1022 30.18 851 25.13 8.1 46.6 32 -7.7 18.2
11:35 1022 30.18 851 25.13 7.8 46 30 -8.8 16.1
11:40 1022 30.18 851 25.13 8.2 46.7 29 -8.6 16.5
11:45 1022 30.18 851 25.13 8.5 47.2 29 -8.6 16.5
11:50 1022 30.18 851 25.13 8.8 47.8 29 -8.3 17
11:55 1021 30.15 851 25.13 8.4 47.1 30 -8.1 17.4
12:00 1021 30.15 851 25.13 8.7 47.6 28 -8.9 16
12:05 1021 30.15 851 25.13 9.4 48.9 27 -8.4 16.8
12:10 1021 30.15 851 25.13 9.2 48.5 28 -8.4 16.9
12:15 1021 30.15 850 25.1 8.9 48 28 -8.9 16
12:20 1021 30.15 850 25.1 9.5 49 26 -8.9 16
12:25 1021 30.15 850 25.1 10 49.9 26 -8.4 16.8
12:30 1021 30.15 850 25.1 9.2 48.6 27 -8.9 15.9
12:35 1021 30.15 850 25.1 9.7 49.5 27 -8.5 16.7
12:40 1021 30.15 850 25.1 10.1 50.2 25 -9.1 15.6
12:45 1021 30.15 850 25.1 10.4 50.7 25 -8.9 15.9
12:50 1021 30.15 850 25.1 9.8 49.7 26 -9 15.8
12:55 1021 30.15 850 25.1 10 50 26 -8.9 16
13:00 1021 30.15 850 25.1 10.2 50.3 25 -8.8 16.1
13:05 1021 30.15 850 25.1 10.3 50.6 24 -9.3 15.2
13:10 1021 30.15 850 25.1 10.4 50.7 25 -8.9 15.9
13:15 1021 30.15 850 25.1 10.8 51.4 23 -9.3 15.3
13:20 1021 30.15 850 25.1 10.8 51.5 23 -9.3 15.3
13:25 1021 30.15 850 25.1 11 51.8 24 -8.6 16.6
13:30 1021 30.15 850 25.1 11.2 52.1 23 -9.1 15.6
13:35 1021 30.15 850 25.1 11.3 52.3 24 -8.8 16.2
13:40 1021 30.15 850 25.1 11.4 52.4 23 -8.9 16
13:45 1020 30.12 850 25.1 11.5 52.7 23 -8.7 16.3
13:50 1020 30.12 850 25.1 11.7 53.1 24 -8.2 17.2
13:55 1020 30.12 849 25.07 11.5 52.7 24 -8.2 17.3
14:00 1020 30.12 849 25.07 10.3 50.5 25 -8.8 16.2
14:05 1020 30.12 849 25.07 11.2 52.2 23 -9.1 15.6
14:10 1020 30.12 849 25.07 11.9 53.3 23 -8.8 16.2
14:15 1020 30.12 849 25.07 12 53.6 22 -9.1 15.6
14:20 1020 30.12 849 25.07 12.2 54 22 -8.7 16.3
14:25 1020 30.12 849 25.07 12.3 54.2 22 -8.6 16.6
14:30 1020 30.12 849 25.07 12.2 53.9 22 -8.9 15.9
14:35 1020 30.12 849 25.07 12.5 54.5 20 -9.6 14.7
14:40 1019 30.09 849 25.07 12.3 54.1 21 -9.6 14.7
14:45 1019 30.09 849 25.07 12.4 54.4 21 -9.4 15
14:50 1019 30.09 849 25.07 12.5 54.4 20 -9.8 14.4
14:55 1019 30.09 848 25.04 12.4 54.3 21 -9.3 15.2
15:00 1019 30.09 848 25.04 12.5 54.4 21 -9.3 15.2
15:05 1019 30.09 848 25.04 12.3 54.1 21 -9.2 15.4
15:10 1019 30.09 848 25.04 12.2 54 21 -9.3 15.2
15:15 1019 30.09 848 25.04 12.7 54.8 20 -9.6 14.7
15:20 1019 30.09 848 25.04 12.5 54.4 20 -9.9 14.2
15:25 1019 30.09 848 25.04 12.5 54.5 21 -9.5 14.9
15:30 1019 30.09 848 25.04 12.4 54.2 21 -9.3 15.3
15:35 1019 30.09 848 25.04 12.1 53.7 22 -9.3 15.3
15:40 1019 30.09 848 25.04 12.9 55.1 20 -9.3 15.2
15:45 1019 30.09 848 25.04 12.9 55.1 21 -9.2 15.5
15:50 1019 30.09 848 25.04 12.9 55.2 21 -8.8 16.2
15:55 1018 30.06 848 25.04 12.3 54.2 21 -9.1 15.6
16:00 1018 30.06 848 25.04 13 55.3 19 -9.9 14.2
16:05 1018 30.06 848 25.04 13.2 55.7 20 -9.4 15
16:10 1018 30.06 848 25.04 13.1 55.6 21 -8.9 16
16:15 1018 30.06 847 25.01 12.9 55.2 21 -9.1 15.7
16:20 1018 30.06 847 25.01 13.1 55.5 20 -9.2 15.4
16:25 1018 30.06 847 25.01 12.9 55.2 21 -9 15.8
16:30 1018 30.06 847 25.01 12.5 54.5 21 -9 15.8
16:35 1018 30.06 847 25.01 12.3 54.1 20 -9.9 14.2
16:40 1018 30.06 847 25.01 13.1 55.5 19 -9.7 14.5
16:45 1018 30.06 847 25.01 13.2 55.7 19 -9.7 14.6
16:50 1018 30.06 847 25.01 13 55.3 19 -10.3 13.5
16:55 1018 30.06 847 25.01 13.1 55.5 19 -9.9 14.1
17:00 1018 30.06 847 25.01 13.1 55.6 19 -10 14
17:05 1018 30.06 847 25.01 13.1 55.5 19 -10 14
17:10 1018 30.06 847 25.01 13.2 55.8 16 -11.9 10.7
17:15 1018 30.06 847 25.01 13.3 55.9 16 -12.4 9.7
17:20 1018 30.06 847 25.01 13.4 56 17 -11.3 11.6
17:25 1018 30.06 847 25.01 13.2 55.7 17 -11.4 11.4
17:30 1018 30.06 847 25.01 12.8 55.1 17 -11.5 11.4
17:35 1018 30.06 847 25.01 12.9 55.2 17 -11.7 11
17:40 1018 30.06 847 25.01 12.9 55.1 17 -11.6 11.1
17:45 1018 30.06 847 25.01 12.8 55 18 -11.2 11.8
17:50 1018 30.06 847 25.01 12.4 54.4 18 -11.1 12.1
17:55 1018 30.06 847 25.01 12.6 54.6 18 -10.9 12.4
18:00 1018 30.06 847 25.01 12.6 54.6 19 -10.7 12.7
18:05 1018 30.06 847 25.01 12.6 54.6 19 -10.6 12.9
18:10 1018 30.06 847 25.01 12.6 54.6 19 -10.7 12.8
18:15 1018 30.06 847 25.01 12.3 54.2 19 -10.8 12.6
18:20 1018 30.06 847 25.01 12.2 54 19 -10.8 12.5
18:25 1018 30.06 847 25.01 12.1 53.8 19 -10.8 12.5
18:30 1018 30.06 847 25.01 12.1 53.7 19 -10.9 12.4
18:35 1018 30.06 847 25.01 12 53.5 19 -10.8 12.6
18:40 1017 30.03 847 25.01 11.9 53.4 19 -10.8 12.6
18:45 1017 30.03 847 25.01 11.9 53.3 20 -10.7 12.8
18:50 1018 30.06 847 25.01 11.8 53.2 20 -10.6 13
18:55 1018 30.06 847 25.01 11.7 53.1 20 -10.4 13.3
19:00 1018 30.06 847 25.01 11.6 52.9 21 -10.2 13.6
19:05 1017 30.03 847 25.01 11.2 52.1 22 -10 14
19:10 1017 30.03 847 25.01 10.7 51.3 22 -9.9 14.1
19:15 1017 30.03 847 25.01 10.4 50.8 23 -10.1 13.9
19:20 1017 30.03 847 25.01 10.2 50.4 23 -10 14
19:25 1017 30.03 847 25.01 10 50 23 -10 14
19:30 1017 30.03 847 25.01 9.9 49.8 23 -10.1 13.9
19:35 1017 30.03 847 25.01 9.6 49.4 24 -10 14.1
19:40 1017 30.03 847 25.01 9.5 49 25 -9.8 14.3
19:45 1017 30.03 847 25.01 9.3 48.8 25 -9.6 14.7
19:50 1017 30.03 847 25.01 9.1 48.4 26 -9.4 15.1
19:55 1017 30.03 847 25.01 8.2 46.7 31 -8 17.6
20:00 1018 30.06 847 25.01 6.9 44.4 34 -8 17.5
20:05 1018 30.06 847 25.01 6.2 43.2 36 -7.6 18.4
20:10 1018 30.06 847 25.01 6 42.8 38 -7.3 18.8
20:15 1018 30.06 847 25.01 5.7 42.2 39 -7.1 19.2
20:20 1018 30.06 847 25.01 5.5 41.8 41 -6.8 19.8
20:25 1018 30.06 847 25.01 5 41 42 -6.8 19.7
20:30 1018 30.06 847 25.01 5 41 40 -7.5 18.5
20:35 1018 30.06 847 25.01 5.2 41.4 39 -7.6 18.4
20:40 1018 30.06 847 25.01 5.2 41.4 39 -7.5 18.5
20:45 1018 30.06 847 25.01 5.4 41.8 37 -8.1 17.4
20:50 1018 30.06 847 25.01 5.7 42.3 36 -8.2 17.3
20:55 1018 30.06 847 25.01 5.8 42.5 36 -8.1 17.4
21:00 1018 30.06 847 25.01 6 42.8 35 -8.4 16.9
21:05 1018 30.06 847 25.01 5.9 42.6 37 -7.8 17.9
21:10 1018 30.06 847 25.01 5.5 41.9 38 -7.8 18
21:15 1018 30.06 847 25.01 5.4 41.7 38 -7.9 17.8
21:20 1018 30.06 847 25.01 5.3 41.6 38 -7.9 17.7
21:25 1018 30.06 847 25.01 5.3 41.5 38 -7.9 17.9
21:30 1018 30.06 847 25.01 5.3 41.5 38 -7.9 17.8
21:35 1018 30.06 847 25.01 5.1 41.2 41 -7.2 19
21:40 1018 30.06 847 25.01 4.7 40.5 41 -7.4 18.7
21:45 1018 30.06 847 25.01 4.7 40.4 40 -7.7 18.2
21:50 1018 30.06 848 25.04 4.6 40.3 41 -7.4 18.7
21:55 1019 30.09 848 25.04 4.5 40.1 42 -7.2 19.1
22:00 1019 30.09 848 25.04 4.4 39.9 43 -7.3 18.9
22:05 1019 30.09 848 25.04 4.3 39.7 43 -7.2 19
22:10 1019 30.09 848 25.04 4.3 39.7 42 -7.4 18.7
22:15 1019 30.09 848 25.04 4.4 40 40 -7.9 17.9
22:20 1019 30.09 848 25.04 4.7 40.4 40 -7.8 18
22:25 1019 30.09 848 25.04 4.9 40.7 39 -7.9 17.9
22:30 1019 30.09 848 25.04 4.9 40.8 39 -7.9 17.8
22:35 1019 30.09 848 25.04 5.1 41.1 38 -8.2 17.3
22:40 1019 30.09 848 25.04 5.4 41.7 37 -8.1 17.4
22:45 1019 30.09 848 25.04 5.6 42 37 -7.9 17.7
22:50 1019 30.09 848 25.04 5.5 41.9 38 -7.8 18
22:55 1019 30.09 848 25.04 5.5 41.8 38 -7.7 18.2
23:00 1019 30.09 848 25.04 5.4 41.7 39 -7.5 18.4
23:05 1019 30.09 848 25.04 5 41 42 -6.7 19.9
23:10 1019 30.09 848 25.04 3.5 38.4 49 -6.2 20.9
23:15 1019 30.09 849 25.07 3.1 37.7 47 -7 19.3
23:20 1019 30.09 849 25.07 3.4 38.2 45 -7.4 18.8
23:25 1019 30.09 849 25.07 3.9 39.1 43 -7.4 18.6
23:30 1019 30.09 848 25.04 4.3 39.8 41 -7.9 17.9
23:35 1019 30.09 848 25.04 4.8 40.6 40 -7.7 18.2
23:40 1019 30.09 849 25.07 4.9 40.8 39 -7.8 17.9
23:45 1019 30.09 849 25.07 4.9 40.8 40 -7.6 18.4
23:50 1019 30.09 848 25.04 4.6 40.3 42 -7.2 19
23:55 1019 30.09 848 25.04 4.2 39.6 43 -7.1 19.2
24:00 1019 30.09 849 25.07 3.8 38.8 46 -6.8 19.8